sensor_id;sensor_type;location;lat;lon;timestamp;P1;durP1;ratioP1;P2;durP2;ratioP2
20731;SDS011;10527;52.124;5.196;2023-07-31T00:00:15;1.92;;;0.60;;
20731;SDS011;10527;52.124;5.196;2023-07-31T00:02:42;2.13;;;0.70;;
20731;SDS011;10527;52.124;5.196;2023-07-31T00:05:09;2.15;;;0.90;;
20731;SDS011;10527;52.124;5.196;2023-07-31T00:07:36;1.92;;;1.00;;
20731;SDS011;10527;52.124;5.196;2023-07-31T00:10:03;3.03;;;0.88;;
20731;SDS011;10527;52.124;5.196;2023-07-31T00:12:30;1.60;;;1.20;;
20731;SDS011;10527;52.124;5.196;2023-07-31T00:14:57;3.30;;;1.70;;
20731;SDS011;10527;52.124;5.196;2023-07-31T00:17:24;6.00;;;1.88;;
20731;SDS011;10527;52.124;5.196;2023-07-31T00:19:50;6.30;;;2.35;;
20731;SDS011;10527;52.124;5.196;2023-07-31T00:22:17;8.98;;;3.33;;
20731;SDS011;10527;52.124;5.196;2023-07-31T00:24:44;9.43;;;2.85;;
20731;SDS011;10527;52.124;5.196;2023-07-31T00:27:11;8.93;;;3.25;;
20731;SDS011;10527;52.124;5.196;2023-07-31T00:29:38;10.60;;;3.40;;
20731;SDS011;10527;52.124;5.196;2023-07-31T00:32:05;10.90;;;3.95;;
20731;SDS011;10527;52.124;5.196;2023-07-31T00:34:33;15.57;;;4.78;;
20731;SDS011;10527;52.124;5.196;2023-07-31T00:37:00;20.55;;;5.13;;
20731;SDS011;10527;52.124;5.196;2023-07-31T00:39:26;16.55;;;5.20;;
20731;SDS011;10527;52.124;5.196;2023-07-31T00:41:53;21.27;;;6.38;;
20731;SDS011;10527;52.124;5.196;2023-07-31T00:44:20;15.88;;;5.65;;
20731;SDS011;10527;52.124;5.196;2023-07-31T00:46:47;16.27;;;5.75;;
20731;SDS011;10527;52.124;5.196;2023-07-31T00:49:15;15.82;;;5.72;;
20731;SDS011;10527;52.124;5.196;2023-07-31T00:51:43;18.83;;;5.35;;
20731;SDS011;10527;52.124;5.196;2023-07-31T00:54:11;17.45;;;5.78;;
20731;SDS011;10527;52.124;5.196;2023-07-31T00:56:38;13.20;;;5.22;;
20731;SDS011;10527;52.124;5.196;2023-07-31T00:59:07;14.55;;;4.88;;
20731;SDS011;10527;52.124;5.196;2023-07-31T01:01:34;14.60;;;5.22;;
20731;SDS011;10527;52.124;5.196;2023-07-31T01:04:01;6.68;;;2.92;;
20731;SDS011;10527;52.124;5.196;2023-07-31T01:07:03;7.90;;;2.50;;
20731;SDS011;10527;52.124;5.196;2023-07-31T01:12:39;6.65;;;2.00;;
20731;SDS011;10527;52.124;5.196;2023-07-31T01:15:08;5.30;;;2.08;;
20731;SDS011;10527;52.124;5.196;2023-07-31T01:17:41;5.70;;;2.33;;
20731;SDS011;10527;52.124;5.196;2023-07-31T01:20:12;5.78;;;2.60;;
20731;SDS011;10527;52.124;5.196;2023-07-31T01:31:41;14.82;;;5.82;;
20731;SDS011;10527;52.124;5.196;2023-07-31T01:34:14;16.05;;;5.68;;
20731;SDS011;10527;52.124;5.196;2023-07-31T01:36:47;15.95;;;4.88;;
20731;SDS011;10527;52.124;5.196;2023-07-31T01:39:14;11.98;;;4.43;;
20731;SDS011;10527;52.124;5.196;2023-07-31T01:41:41;15.27;;;5.35;;
20731;SDS011;10527;52.124;5.196;2023-07-31T01:44:08;14.38;;;4.30;;
20731;SDS011;10527;52.124;5.196;2023-07-31T01:46:35;15.05;;;5.32;;
20731;SDS011;10527;52.124;5.196;2023-07-31T01:49:02;16.63;;;5.85;;
20731;SDS011;10527;52.124;5.196;2023-07-31T01:51:29;16.60;;;4.88;;
20731;SDS011;10527;52.124;5.196;2023-07-31T01:54:00;16.48;;;4.53;;
20731;SDS011;10527;52.124;5.196;2023-07-31T01:56:28;11.93;;;4.10;;
20731;SDS011;10527;52.124;5.196;2023-07-31T01:58:55;12.18;;;4.65;;
20731;SDS011;10527;52.124;5.196;2023-07-31T02:01:22;11.10;;;3.83;;
20731;SDS011;10527;52.124;5.196;2023-07-31T02:03:49;10.27;;;3.55;;
20731;SDS011;10527;52.124;5.196;2023-07-31T02:06:16;8.85;;;3.67;;
20731;SDS011;10527;52.124;5.196;2023-07-31T02:08:43;13.80;;;5.60;;
20731;SDS011;10527;52.124;5.196;2023-07-31T02:11:10;8.82;;;3.35;;
20731;SDS011;10527;52.124;5.196;2023-07-31T02:13:37;10.00;;;4.07;;
20731;SDS011;10527;52.124;5.196;2023-07-31T02:16:04;9.43;;;3.45;;
20731;SDS011;10527;52.124;5.196;2023-07-31T02:18:31;12.38;;;4.40;;
20731;SDS011;10527;52.124;5.196;2023-07-31T02:20:57;14.27;;;4.22;;
20731;SDS011;10527;52.124;5.196;2023-07-31T02:23:24;14.30;;;3.85;;
20731;SDS011;10527;52.124;5.196;2023-07-31T02:25:51;16.95;;;4.82;;
20731;SDS011;10527;52.124;5.196;2023-07-31T02:28:18;13.57;;;4.63;;
20731;SDS011;10527;52.124;5.196;2023-07-31T02:30:45;11.25;;;3.53;;
20731;SDS011;10527;52.124;5.196;2023-07-31T02:33:12;9.68;;;3.30;;
20731;SDS011;10527;52.124;5.196;2023-07-31T02:35:40;12.30;;;4.82;;
20731;SDS011;10527;52.124;5.196;2023-07-31T02:38:07;9.15;;;3.13;;
20731;SDS011;10527;52.124;5.196;2023-07-31T02:40:34;14.45;;;4.53;;
20731;SDS011;10527;52.124;5.196;2023-07-31T02:43:01;12.20;;;4.43;;
20731;SDS011;10527;52.124;5.196;2023-07-31T02:45:28;11.43;;;3.58;;
20731;SDS011;10527;52.124;5.196;2023-07-31T02:47:55;11.90;;;4.47;;
20731;SDS011;10527;52.124;5.196;2023-07-31T02:50:21;8.02;;;3.35;;
20731;SDS011;10527;52.124;5.196;2023-07-31T02:52:48;11.80;;;4.32;;
20731;SDS011;10527;52.124;5.196;2023-07-31T02:55:15;15.35;;;4.55;;
20731;SDS011;10527;52.124;5.196;2023-07-31T02:57:42;14.15;;;4.32;;
20731;SDS011;10527;52.124;5.196;2023-07-31T03:00:09;17.88;;;4.70;;
20731;SDS011;10527;52.124;5.196;2023-07-31T03:02:36;11.63;;;4.57;;
20731;SDS011;10527;52.124;5.196;2023-07-31T03:05:03;13.60;;;5.68;;
20731;SDS011;10527;52.124;5.196;2023-07-31T03:07:30;14.93;;;4.80;;
20731;SDS011;10527;52.124;5.196;2023-07-31T03:09:57;19.80;;;6.15;;
20731;SDS011;10527;52.124;5.196;2023-07-31T03:12:24;17.13;;;5.32;;
20731;SDS011;10527;52.124;5.196;2023-07-31T03:14:51;16.05;;;5.05;;
20731;SDS011;10527;52.124;5.196;2023-07-31T03:17:18;17.70;;;5.35;;
20731;SDS011;10527;52.124;5.196;2023-07-31T03:19:45;16.80;;;5.60;;
20731;SDS011;10527;52.124;5.196;2023-07-31T03:22:11;13.60;;;5.25;;
20731;SDS011;10527;52.124;5.196;2023-07-31T03:24:38;23.25;;;6.35;;
20731;SDS011;10527;52.124;5.196;2023-07-31T03:27:05;18.23;;;5.22;;
20731;SDS011;10527;52.124;5.196;2023-07-31T03:29:32;20.58;;;5.28;;
20731;SDS011;10527;52.124;5.196;2023-07-31T03:31:59;11.30;;;4.50;;
20731;SDS011;10527;52.124;5.196;2023-07-31T03:34:27;15.25;;;5.47;;
20731;SDS011;10527;52.124;5.196;2023-07-31T03:36:53;15.65;;;4.95;;
20731;SDS011;10527;52.124;5.196;2023-07-31T03:39:20;15.88;;;5.72;;
20731;SDS011;10527;52.124;5.196;2023-07-31T03:41:47;14.35;;;4.85;;
20731;SDS011;10527;52.124;5.196;2023-07-31T03:44:14;17.58;;;5.38;;
20731;SDS011;10527;52.124;5.196;2023-07-31T03:46:41;12.68;;;4.30;;
20731;SDS011;10527;52.124;5.196;2023-07-31T03:49:08;11.10;;;4.82;;
20731;SDS011;10527;52.124;5.196;2023-07-31T03:51:35;16.85;;;6.22;;
20731;SDS011;10527;52.124;5.196;2023-07-31T03:54:02;14.90;;;4.95;;
20731;SDS011;10527;52.124;5.196;2023-07-31T03:56:29;14.73;;;5.85;;
20731;SDS011;10527;52.124;5.196;2023-07-31T03:58:59;18.48;;;4.97;;
20731;SDS011;10527;52.124;5.196;2023-07-31T04:01:26;15.05;;;5.45;;
20731;SDS011;10527;52.124;5.196;2023-07-31T04:03:53;15.20;;;4.57;;
20731;SDS011;10527;52.124;5.196;2023-07-31T04:06:20;11.52;;;4.50;;
20731;SDS011;10527;52.124;5.196;2023-07-31T04:08:47;13.77;;;5.20;;
20731;SDS011;10527;52.124;5.196;2023-07-31T04:11:13;16.60;;;4.65;;
20731;SDS011;10527;52.124;5.196;2023-07-31T04:13:40;11.52;;;4.50;;
20731;SDS011;10527;52.124;5.196;2023-07-31T04:16:07;14.85;;;5.78;;
20731;SDS011;10527;52.124;5.196;2023-07-31T04:18:34;15.93;;;5.18;;
20731;SDS011;10527;52.124;5.196;2023-07-31T04:21:01;16.23;;;6.03;;
20731;SDS011;10527;52.124;5.196;2023-07-31T04:23:28;13.10;;;5.20;;
20731;SDS011;10527;52.124;5.196;2023-07-31T04:25:55;16.10;;;5.50;;
20731;SDS011;10527;52.124;5.196;2023-07-31T04:28:26;11.95;;;5.22;;
20731;SDS011;10527;52.124;5.196;2023-07-31T04:30:53;13.77;;;4.53;;
20731;SDS011;10527;52.124;5.196;2023-07-31T04:33:20;10.88;;;4.75;;
20731;SDS011;10527;52.124;5.196;2023-07-31T04:35:51;8.43;;;4.22;;
20731;SDS011;10527;52.124;5.196;2023-07-31T04:38:19;9.57;;;4.13;;
20731;SDS011;10527;52.124;5.196;2023-07-31T04:40:48;12.52;;;4.25;;
20731;SDS011;10527;52.124;5.196;2023-07-31T04:43:15;10.30;;;4.55;;
20731;SDS011;10527;52.124;5.196;2023-07-31T04:45:44;11.27;;;4.47;;
20731;SDS011;10527;52.124;5.196;2023-07-31T04:48:14;9.98;;;4.15;;
20731;SDS011;10527;52.124;5.196;2023-07-31T04:50:41;10.45;;;3.40;;
20731;SDS011;10527;52.124;5.196;2023-07-31T04:53:08;9.15;;;3.88;;
20731;SDS011;10527;52.124;5.196;2023-07-31T04:55:35;13.95;;;4.18;;
20731;SDS011;10527;52.124;5.196;2023-07-31T04:58:02;9.50;;;4.63;;
20731;SDS011;10527;52.124;5.196;2023-07-31T05:00:29;9.50;;;4.82;;
20731;SDS011;10527;52.124;5.196;2023-07-31T05:02:56;11.05;;;4.30;;
20731;SDS011;10527;52.124;5.196;2023-07-31T05:05:23;8.18;;;3.40;;
20731;SDS011;10527;52.124;5.196;2023-07-31T05:07:50;8.77;;;3.88;;
20731;SDS011;10527;52.124;5.196;2023-07-31T05:10:16;10.48;;;3.83;;
20731;SDS011;10527;52.124;5.196;2023-07-31T05:12:43;7.82;;;3.45;;
20731;SDS011;10527;52.124;5.196;2023-07-31T05:15:10;5.70;;;3.10;;
20731;SDS011;10527;52.124;5.196;2023-07-31T05:17:37;7.35;;;3.50;;
20731;SDS011;10527;52.124;5.196;2023-07-31T05:20:04;8.23;;;3.42;;
20731;SDS011;10527;52.124;5.196;2023-07-31T05:22:32;6.78;;;3.25;;
20731;SDS011;10527;52.124;5.196;2023-07-31T05:24:59;9.15;;;3.47;;
20731;SDS011;10527;52.124;5.196;2023-07-31T05:27:26;4.78;;;2.50;;
20731;SDS011;10527;52.124;5.196;2023-07-31T05:29:53;5.30;;;2.75;;
20731;SDS011;10527;52.124;5.196;2023-07-31T05:32:20;6.53;;;2.45;;
20731;SDS011;10527;52.124;5.196;2023-07-31T05:34:46;5.03;;;2.53;;
20731;SDS011;10527;52.124;5.196;2023-07-31T05:37:14;3.92;;;2.67;;
20731;SDS011;10527;52.124;5.196;2023-07-31T05:39:40;5.85;;;2.45;;
20731;SDS011;10527;52.124;5.196;2023-07-31T05:42:07;6.45;;;2.72;;
20731;SDS011;10527;52.124;5.196;2023-07-31T05:44:34;5.40;;;2.90;;
20731;SDS011;10527;52.124;5.196;2023-07-31T05:47:01;4.55;;;2.25;;
20731;SDS011;10527;52.124;5.196;2023-07-31T05:49:28;4.25;;;2.10;;
20731;SDS011;10527;52.124;5.196;2023-07-31T05:51:55;4.78;;;2.28;;
20731;SDS011;10527;52.124;5.196;2023-07-31T05:54:22;6.22;;;2.72;;
20731;SDS011;10527;52.124;5.196;2023-07-31T05:56:49;5.40;;;3.22;;
20731;SDS011;10527;52.124;5.196;2023-07-31T05:59:15;5.97;;;2.53;;
20731;SDS011;10527;52.124;5.196;2023-07-31T06:01:43;6.18;;;2.85;;
20731;SDS011;10527;52.124;5.196;2023-07-31T06:04:10;4.75;;;2.30;;
20731;SDS011;10527;52.124;5.196;2023-07-31T06:06:39;4.70;;;2.35;;
20731;SDS011;10527;52.124;5.196;2023-07-31T06:09:07;8.95;;;2.67;;
20731;SDS011;10527;52.124;5.196;2023-07-31T06:11:34;4.07;;;2.05;;
20731;SDS011;10527;52.124;5.196;2023-07-31T06:14:01;5.28;;;2.08;;
20731;SDS011;10527;52.124;5.196;2023-07-31T06:16:27;4.85;;;2.47;;
20731;SDS011;10527;52.124;5.196;2023-07-31T06:18:54;4.13;;;2.30;;
20731;SDS011;10527;52.124;5.196;2023-07-31T06:21:21;7.75;;;2.88;;
20731;SDS011;10527;52.124;5.196;2023-07-31T06:23:48;3.65;;;1.98;;
20731;SDS011;10527;52.124;5.196;2023-07-31T06:26:15;5.55;;;2.20;;
20731;SDS011;10527;52.124;5.196;2023-07-31T06:28:43;3.58;;;2.13;;
20731;SDS011;10527;52.124;5.196;2023-07-31T06:31:10;5.95;;;1.90;;
20731;SDS011;10527;52.124;5.196;2023-07-31T06:33:37;2.83;;;1.58;;
20731;SDS011;10527;52.124;5.196;2023-07-31T06:36:04;4.72;;;2.08;;
20731;SDS011;10527;52.124;5.196;2023-07-31T06:38:31;6.63;;;2.15;;
20731;SDS011;10527;52.124;5.196;2023-07-31T06:40:58;4.32;;;2.08;;
20731;SDS011;10527;52.124;5.196;2023-07-31T06:43:26;4.28;;;1.70;;
20731;SDS011;10527;52.124;5.196;2023-07-31T06:45:55;4.40;;;1.70;;
20731;SDS011;10527;52.124;5.196;2023-07-31T06:48:21;3.85;;;1.60;;
20731;SDS011;10527;52.124;5.196;2023-07-31T06:50:48;5.00;;;2.00;;
20731;SDS011;10527;52.124;5.196;2023-07-31T06:53:15;3.22;;;1.58;;
20731;SDS011;10527;52.124;5.196;2023-07-31T06:55:42;3.20;;;1.67;;
20731;SDS011;10527;52.124;5.196;2023-07-31T06:58:09;4.80;;;1.83;;
20731;SDS011;10527;52.124;5.196;2023-07-31T07:00:36;4.03;;;1.65;;
20731;SDS011;10527;52.124;5.196;2023-07-31T07:03:03;2.95;;;1.40;;
20731;SDS011;10527;52.124;5.196;2023-07-31T07:05:30;4.18;;;1.70;;
20731;SDS011;10527;52.124;5.196;2023-07-31T07:07:57;3.53;;;1.80;;
20731;SDS011;10527;52.124;5.196;2023-07-31T07:10:24;1.88;;;1.45;;
20731;SDS011;10527;52.124;5.196;2023-07-31T07:12:51;3.72;;;1.30;;
20731;SDS011;10527;52.124;5.196;2023-07-31T07:15:19;2.88;;;1.38;;
20731;SDS011;10527;52.124;5.196;2023-07-31T07:17:46;2.55;;;1.70;;
20731;SDS011;10527;52.124;5.196;2023-07-31T07:20:13;2.78;;;1.35;;
20731;SDS011;10527;52.124;5.196;2023-07-31T07:22:40;3.25;;;1.42;;
20731;SDS011;10527;52.124;5.196;2023-07-31T07:25:10;4.55;;;1.70;;
20731;SDS011;10527;52.124;5.196;2023-07-31T07:27:37;3.72;;;1.55;;
20731;SDS011;10527;52.124;5.196;2023-07-31T07:30:04;3.33;;;1.40;;
20731;SDS011;10527;52.124;5.196;2023-07-31T07:32:31;3.85;;;1.55;;
20731;SDS011;10527;52.124;5.196;2023-07-31T07:34:58;3.50;;;1.48;;
20731;SDS011;10527;52.124;5.196;2023-07-31T07:37:25;7.20;;;2.60;;
20731;SDS011;10527;52.124;5.196;2023-07-31T07:39:52;2.13;;;0.93;;
20731;SDS011;10527;52.124;5.196;2023-07-31T07:42:19;2.92;;;1.30;;
20731;SDS011;10527;52.124;5.196;2023-07-31T07:44:49;1.52;;;1.10;;
20731;SDS011;10527;52.124;5.196;2023-07-31T07:47:16;4.88;;;1.10;;
20731;SDS011;10527;52.124;5.196;2023-07-31T07:49:43;2.38;;;1.00;;
20731;SDS011;10527;52.124;5.196;2023-07-31T07:52:18;1.95;;;1.00;;
20731;SDS011;10527;52.124;5.196;2023-07-31T07:54:44;5.97;;;1.20;;
20731;SDS011;10527;52.124;5.196;2023-07-31T07:57:11;1.15;;;0.90;;
20731;SDS011;10527;52.124;5.196;2023-07-31T07:59:38;2.78;;;1.00;;
20731;SDS011;10527;52.124;5.196;2023-07-31T08:02:05;1.38;;;0.93;;
20731;SDS011;10527;52.124;5.196;2023-07-31T08:04:32;2.08;;;0.90;;
20731;SDS011;10527;52.124;5.196;2023-07-31T08:06:59;1.88;;;0.90;;
20731;SDS011;10527;52.124;5.196;2023-07-31T08:09:26;1.52;;;0.90;;
20731;SDS011;10527;52.124;5.196;2023-07-31T08:11:52;2.10;;;0.77;;
20731;SDS011;10527;52.124;5.196;2023-07-31T08:14:20;1.88;;;0.88;;
20731;SDS011;10527;52.124;5.196;2023-07-31T08:16:47;1.05;;;0.80;;
20731;SDS011;10527;52.124;5.196;2023-07-31T08:19:14;2.17;;;0.80;;
20731;SDS011;10527;52.124;5.196;2023-07-31T08:21:41;1.48;;;0.90;;
20731;SDS011;10527;52.124;5.196;2023-07-31T08:24:08;1.73;;;0.70;;
20731;SDS011;10527;52.124;5.196;2023-07-31T08:26:35;1.25;;;0.80;;
20731;SDS011;10527;52.124;5.196;2023-07-31T08:29:02;0.95;;;0.80;;
20731;SDS011;10527;52.124;5.196;2023-07-31T08:31:30;1.95;;;0.80;;
20731;SDS011;10527;52.124;5.196;2023-07-31T08:33:57;2.30;;;0.55;;
20731;SDS011;10527;52.124;5.196;2023-07-31T08:36:25;0.90;;;0.60;;
20731;SDS011;10527;52.124;5.196;2023-07-31T08:39:12;1.30;;;0.73;;
20731;SDS011;10527;52.124;5.196;2023-07-31T08:41:39;2.90;;;0.90;;
20731;SDS011;10527;52.124;5.196;2023-07-31T08:44:07;1.40;;;0.77;;
20731;SDS011;10527;52.124;5.196;2023-07-31T08:46:34;0.80;;;0.70;;
20731;SDS011;10527;52.124;5.196;2023-07-31T08:49:08;1.15;;;0.90;;
20731;SDS011;10527;52.124;5.196;2023-07-31T08:51:37;1.42;;;0.70;;
20731;SDS011;10527;52.124;5.196;2023-07-31T08:54:04;0.65;;;0.50;;
20731;SDS011;10527;52.124;5.196;2023-07-31T08:56:32;1.05;;;0.80;;
20731;SDS011;10527;52.124;5.196;2023-07-31T08:58:59;1.05;;;0.57;;
20731;SDS011;10527;52.124;5.196;2023-07-31T09:01:30;1.80;;;0.85;;
20731;SDS011;10527;52.124;5.196;2023-07-31T09:04:06;1.00;;;0.60;;
20731;SDS011;10527;52.124;5.196;2023-07-31T09:06:42;0.75;;;0.75;;
20731;SDS011;10527;52.124;5.196;2023-07-31T09:09:10;1.90;;;0.60;;
20731;SDS011;10527;52.124;5.196;2023-07-31T09:11:38;1.35;;;0.77;;
20731;SDS011;10527;52.124;5.196;2023-07-31T09:14:05;1.02;;;0.68;;
20731;SDS011;10527;52.124;5.196;2023-07-31T09:16:35;1.65;;;0.95;;
20731;SDS011;10527;52.124;5.196;2023-07-31T09:22:12;1.58;;;0.70;;
20731;SDS011;10527;52.124;5.196;2023-07-31T09:24:45;1.48;;;0.90;;
20731;SDS011;10527;52.124;5.196;2023-07-31T09:27:12;1.40;;;0.60;;
20731;SDS011;10527;52.124;5.196;2023-07-31T09:29:39;1.25;;;0.70;;
20731;SDS011;10527;52.124;5.196;2023-07-31T09:32:26;0.90;;;0.70;;
20731;SDS011;10527;52.124;5.196;2023-07-31T09:34:53;1.23;;;0.85;;
20731;SDS011;10527;52.124;5.196;2023-07-31T09:37:20;1.58;;;0.80;;
20731;SDS011;10527;52.124;5.196;2023-07-31T09:39:47;1.95;;;0.82;;
20731;SDS011;10527;52.124;5.196;2023-07-31T09:42:14;1.05;;;0.77;;
20731;SDS011;10527;52.124;5.196;2023-07-31T09:44:52;1.35;;;0.80;;
20731;SDS011;10527;52.124;5.196;2023-07-31T09:47:23;1.08;;;0.90;;
20731;SDS011;10527;52.124;5.196;2023-07-31T09:52:26;0.75;;;0.60;;
20731;SDS011;10527;52.124;5.196;2023-07-31T09:54:53;0.98;;;0.73;;
20731;SDS011;10527;52.124;5.196;2023-07-31T09:57:21;1.08;;;0.80;;
20731;SDS011;10527;52.124;5.196;2023-07-31T10:00:00;0.98;;;0.70;;
20731;SDS011;10527;52.124;5.196;2023-07-31T10:02:27;0.95;;;0.70;;
20731;SDS011;10527;52.124;5.196;2023-07-31T10:04:57;0.80;;;0.80;;
20731;SDS011;10527;52.124;5.196;2023-07-31T10:07:39;1.23;;;0.80;;
20731;SDS011;10527;52.124;5.196;2023-07-31T10:10:11;1.42;;;0.90;;
20731;SDS011;10527;52.124;5.196;2023-07-31T10:12:41;0.98;;;0.70;;
20731;SDS011;10527;52.124;5.196;2023-07-31T10:15:10;1.15;;;0.95;;
20731;SDS011;10527;52.124;5.196;2023-07-31T10:17:38;1.00;;;0.90;;
20731;SDS011;10527;52.124;5.196;2023-07-31T10:20:05;1.67;;;1.13;;
20731;SDS011;10527;52.124;5.196;2023-07-31T10:22:34;1.30;;;1.13;;
20731;SDS011;10527;52.124;5.196;2023-07-31T10:25:01;1.83;;;1.20;;
20731;SDS011;10527;52.124;5.196;2023-07-31T10:27:29;2.58;;;1.75;;
20731;SDS011;10527;52.124;5.196;2023-07-31T10:29:57;2.65;;;1.80;;
20731;SDS011;10527;52.124;5.196;2023-07-31T10:32:26;3.67;;;2.20;;
20731;SDS011;10527;52.124;5.196;2023-07-31T10:34:54;3.65;;;1.80;;
20731;SDS011;10527;52.124;5.196;2023-07-31T10:37:26;2.45;;;1.70;;
20731;SDS011;10527;52.124;5.196;2023-07-31T10:42:31;2.15;;;1.67;;
20731;SDS011;10527;52.124;5.196;2023-07-31T10:48:16;3.15;;;1.98;;
20731;SDS011;10527;52.124;5.196;2023-07-31T10:50:47;2.92;;;1.88;;
20731;SDS011;10527;52.124;5.196;2023-07-31T10:53:33;2.08;;;1.75;;
20731;SDS011;10527;52.124;5.196;2023-07-31T10:56:04;2.30;;;1.60;;
20731;SDS011;10527;52.124;5.196;2023-07-31T10:58:34;3.58;;;1.63;;
20731;SDS011;10527;52.124;5.196;2023-07-31T11:01:10;1.20;;;1.10;;
20731;SDS011;10527;52.124;5.196;2023-07-31T11:03:44;2.47;;;1.63;;
20731;SDS011;10527;52.124;5.196;2023-07-31T11:06:18;2.35;;;1.45;;
20731;SDS011;10527;52.124;5.196;2023-07-31T11:08:49;3.92;;;1.40;;
20731;SDS011;10527;52.124;5.196;2023-07-31T11:11:18;1.40;;;1.13;;
20731;SDS011;10527;52.124;5.196;2023-07-31T11:13:49;2.25;;;1.10;;
20731;SDS011;10527;52.124;5.196;2023-07-31T11:16:26;1.65;;;1.10;;
20731;SDS011;10527;52.124;5.196;2023-07-31T11:18:53;2.92;;;1.30;;
20731;SDS011;10527;52.124;5.196;2023-07-31T11:21:22;2.03;;;1.48;;
20731;SDS011;10527;52.124;5.196;2023-07-31T11:23:51;1.42;;;0.95;;
20731;SDS011;10527;52.124;5.196;2023-07-31T11:28:59;2.85;;;1.40;;
20731;SDS011;10527;52.124;5.196;2023-07-31T11:31:26;3.42;;;1.30;;
20731;SDS011;10527;52.124;5.196;2023-07-31T11:34:04;1.63;;;1.30;;
20731;SDS011;10527;52.124;5.196;2023-07-31T11:39:26;2.78;;;1.33;;
20731;SDS011;10527;52.124;5.196;2023-07-31T11:41:58;2.45;;;1.15;;
20731;SDS011;10527;52.124;5.196;2023-07-31T11:44:26;2.10;;;1.40;;
20731;SDS011;10527;52.124;5.196;2023-07-31T11:47:03;2.55;;;1.20;;
20731;SDS011;10527;52.124;5.196;2023-07-31T11:49:30;1.92;;;1.50;;
20731;SDS011;10527;52.124;5.196;2023-07-31T11:52:01;1.73;;;1.30;;
20731;SDS011;10527;52.124;5.196;2023-07-31T11:54:28;2.15;;;1.50;;
20731;SDS011;10527;52.124;5.196;2023-07-31T11:56:55;2.97;;;1.92;;
20731;SDS011;10527;52.124;5.196;2023-07-31T11:59:23;2.72;;;2.13;;
20731;SDS011;10527;52.124;5.196;2023-07-31T12:01:50;3.10;;;2.22;;
20731;SDS011;10527;52.124;5.196;2023-07-31T12:04:23;3.92;;;2.42;;
20731;SDS011;10527;52.124;5.196;2023-07-31T12:07:01;2.75;;;2.30;;
20731;SDS011;10527;52.124;5.196;2023-07-31T12:09:28;4.07;;;2.28;;
20731;SDS011;10527;52.124;5.196;2023-07-31T12:11:57;3.15;;;2.30;;
20731;SDS011;10527;52.124;5.196;2023-07-31T12:14:27;3.85;;;2.33;;
20731;SDS011;10527;52.124;5.196;2023-07-31T12:17:01;2.20;;;1.90;;
20731;SDS011;10527;52.124;5.196;2023-07-31T12:19:31;3.55;;;2.10;;
20731;SDS011;10527;52.124;5.196;2023-07-31T12:21:58;2.63;;;1.60;;
20731;SDS011;10527;52.124;5.196;2023-07-31T12:24:26;2.35;;;2.00;;
20731;SDS011;10527;52.124;5.196;2023-07-31T12:26:53;2.25;;;1.92;;
20731;SDS011;10527;52.124;5.196;2023-07-31T12:29:21;3.45;;;2.58;;
20731;SDS011;10527;52.124;5.196;2023-07-31T12:31:51;3.67;;;2.00;;
20731;SDS011;10527;52.124;5.196;2023-07-31T12:34:18;2.00;;;1.50;;
20731;SDS011;10527;52.124;5.196;2023-07-31T12:36:47;1.65;;;1.55;;
20731;SDS011;10527;52.124;5.196;2023-07-31T12:39:19;2.45;;;1.60;;
20731;SDS011;10527;52.124;5.196;2023-07-31T12:41:46;1.67;;;1.58;;
20731;SDS011;10527;52.124;5.196;2023-07-31T12:44:13;2.78;;;1.90;;
20731;SDS011;10527;52.124;5.196;2023-07-31T12:46:40;3.70;;;1.63;;
20731;SDS011;10527;52.124;5.196;2023-07-31T12:49:08;3.38;;;1.65;;
20731;SDS011;10527;52.124;5.196;2023-07-31T12:51:36;3.00;;;1.60;;
20731;SDS011;10527;52.124;5.196;2023-07-31T12:54:03;3.00;;;1.90;;
20731;SDS011;10527;52.124;5.196;2023-07-31T12:56:30;1.60;;;1.50;;
20731;SDS011;10527;52.124;5.196;2023-07-31T12:58:57;2.03;;;1.52;;
20731;SDS011;10527;52.124;5.196;2023-07-31T13:01:24;2.35;;;1.70;;
20731;SDS011;10527;52.124;5.196;2023-07-31T13:03:54;2.15;;;1.73;;
20731;SDS011;10527;52.124;5.196;2023-07-31T13:06:21;1.58;;;1.48;;
20731;SDS011;10527;52.124;5.196;2023-07-31T13:08:48;2.25;;;1.60;;
20731;SDS011;10527;52.124;5.196;2023-07-31T13:11:21;2.03;;;1.60;;
20731;SDS011;10527;52.124;5.196;2023-07-31T13:13:48;2.38;;;1.58;;
20731;SDS011;10527;52.124;5.196;2023-07-31T13:16:18;1.83;;;1.60;;
20731;SDS011;10527;52.124;5.196;2023-07-31T13:18:45;2.67;;;1.35;;
20731;SDS011;10527;52.124;5.196;2023-07-31T13:21:18;2.47;;;1.63;;
20731;SDS011;10527;52.124;5.196;2023-07-31T13:23:45;1.77;;;1.50;;
20731;SDS011;10527;52.124;5.196;2023-07-31T13:26:11;1.70;;;1.20;;
20731;SDS011;10527;52.124;5.196;2023-07-31T13:28:38;2.15;;;1.48;;
20731;SDS011;10527;52.124;5.196;2023-07-31T13:31:07;1.23;;;1.13;;
20731;SDS011;10527;52.124;5.196;2023-07-31T13:33:41;3.30;;;1.55;;
20731;SDS011;10527;52.124;5.196;2023-07-31T13:36:09;1.77;;;1.40;;
20731;SDS011;10527;52.124;5.196;2023-07-31T13:38:37;2.95;;;1.13;;
20731;SDS011;10527;52.124;5.196;2023-07-31T13:41:04;1.10;;;0.90;;
20731;SDS011;10527;52.124;5.196;2023-07-31T13:43:31;1.35;;;0.70;;
20731;SDS011;10527;52.124;5.196;2023-07-31T13:46:01;0.75;;;0.50;;
20731;SDS011;10527;52.124;5.196;2023-07-31T13:48:35;0.45;;;0.40;;
20731;SDS011;10527;52.124;5.196;2023-07-31T13:51:03;0.35;;;0.35;;
20731;SDS011;10527;52.124;5.196;2023-07-31T13:53:30;0.50;;;0.50;;
20731;SDS011;10527;52.124;5.196;2023-07-31T13:55:57;2.00;;;0.60;;
20731;SDS011;10527;52.124;5.196;2023-07-31T13:58:24;0.65;;;0.50;;
20731;SDS011;10527;52.124;5.196;2023-07-31T14:00:59;0.68;;;0.50;;
20731;SDS011;10527;52.124;5.196;2023-07-31T14:03:26;0.73;;;0.50;;
20731;SDS011;10527;52.124;5.196;2023-07-31T14:05:53;0.50;;;0.47;;
20731;SDS011;10527;52.124;5.196;2023-07-31T14:08:23;1.67;;;0.55;;
20731;SDS011;10527;52.124;5.196;2023-07-31T14:10:49;0.80;;;0.50;;
20731;SDS011;10527;52.124;5.196;2023-07-31T14:13:16;1.63;;;0.70;;
20731;SDS011;10527;52.124;5.196;2023-07-31T14:15:43;0.93;;;0.57;;
20731;SDS011;10527;52.124;5.196;2023-07-31T14:18:10;0.90;;;0.70;;
20731;SDS011;10527;52.124;5.196;2023-07-31T14:20:38;1.02;;;0.70;;
20731;SDS011;10527;52.124;5.196;2023-07-31T14:23:05;1.58;;;0.50;;
20731;SDS011;10527;52.124;5.196;2023-07-31T14:25:32;1.58;;;0.82;;
20731;SDS011;10527;52.124;5.196;2023-07-31T14:27:58;1.02;;;0.77;;
20731;SDS011;10527;52.124;5.196;2023-07-31T14:30:25;0.82;;;0.63;;
20731;SDS011;10527;52.124;5.196;2023-07-31T14:32:52;1.25;;;0.82;;
20731;SDS011;10527;52.124;5.196;2023-07-31T14:35:20;1.48;;;1.00;;
20731;SDS011;10527;52.124;5.196;2023-07-31T14:37:47;2.28;;;0.70;;
20731;SDS011;10527;52.124;5.196;2023-07-31T14:40:14;2.08;;;1.20;;
20731;SDS011;10527;52.124;5.196;2023-07-31T14:42:41;1.75;;;1.30;;
20731;SDS011;10527;52.124;5.196;2023-07-31T14:45:08;1.92;;;1.73;;
20731;SDS011;10527;52.124;5.196;2023-07-31T14:47:36;1.10;;;0.85;;
20731;SDS011;10527;52.124;5.196;2023-07-31T14:50:03;1.20;;;0.98;;
20731;SDS011;10527;52.124;5.196;2023-07-31T14:52:31;0.90;;;0.80;;
20731;SDS011;10527;52.124;5.196;2023-07-31T14:54:58;1.38;;;0.88;;
20731;SDS011;10527;52.124;5.196;2023-07-31T14:57:25;3.20;;;1.10;;
20731;SDS011;10527;52.124;5.196;2023-07-31T14:59:54;0.70;;;0.70;;
20731;SDS011;10527;52.124;5.196;2023-07-31T15:02:21;2.20;;;1.17;;
20731;SDS011;10527;52.124;5.196;2023-07-31T15:04:54;1.92;;;1.33;;
20731;SDS011;10527;52.124;5.196;2023-07-31T15:07:21;1.52;;;1.02;;
20731;SDS011;10527;52.124;5.196;2023-07-31T15:09:48;1.10;;;1.00;;
20731;SDS011;10527;52.124;5.196;2023-07-31T15:12:15;1.73;;;1.20;;
20731;SDS011;10527;52.124;5.196;2023-07-31T15:14:41;1.27;;;1.17;;
20731;SDS011;10527;52.124;5.196;2023-07-31T15:17:08;1.73;;;1.50;;
20731;SDS011;10527;52.124;5.196;2023-07-31T15:19:35;1.40;;;1.30;;